Time;durP1;ratioP1;P1;durP2;ratioP2;P2;SDS_P1;SDS_P2;PMS_P1;PMS_P2;Temp;Humidity;BMP_temperature;BMP_pressure;BME280_temperature;BME280_humidity;BME280_pressure;Samples;Min_cycle;Max_cycle;Signal;HPM_P1;HPM_P2
2022/04/23 00:00:52;;;;;;;30.63;19.83;;;10.80;99.90;;;;;;5031423;28;20037;-58
2022/04/23 00:03:18;;;;;;;30.70;20.88;;;10.80;99.90;;;;;;5033864;28;20026;-57
2022/04/23 00:05:44;;;;;;;32.08;21.13;;;10.80;99.90;;;;;;5032964;28;20079;-57
2022/04/23 00:08:10;;;;;;;31.70;21.38;;;10.80;99.90;;;;;;5033199;28;20025;-62
2022/04/23 00:10:36;;;;;;;47.60;33.42;;;10.80;99.90;;;;;;5032503;28;20026;-60
2022/04/23 00:13:04;;;;;;;47.60;31.75;;;10.80;99.90;;;;;;5032959;28;20040;-58
2022/04/23 00:15:37;;;;;;;44.33;30.77;;;10.80;99.90;;;;;;5033930;28;20108;-56
2022/04/23 00:18:07;;;;;;;51.40;35.20;;;10.80;99.90;;;;;;5034261;28;20057;-56
2022/04/23 00:20:33;;;;;;;34.50;24.33;;;10.80;99.90;;;;;;5032480;28;20033;-56
2022/04/23 00:22:59;;;;;;;29.15;20.80;;;10.90;99.90;;;;;;5034085;28;20475;-54
2022/04/23 00:25:26;;;;;;;29.65;20.55;;;10.90;99.90;;;;;;5033743;28;20155;-57
2022/04/23 00:27:51;;;;;;;30.63;20.58;;;10.90;99.90;;;;;;5033840;28;20057;-55
2022/04/23 00:30:17;;;;;;;31.85;21.80;;;11.00;99.90;;;;;;5032561;28;20067;-58
2022/04/23 00:32:43;;;;;;;31.38;21.20;;;11.00;99.90;;;;;;5034032;28;20040;-58
2022/04/23 00:35:13;;;;;;;32.05;21.48;;;11.00;99.90;;;;;;5032515;28;20390;-58
2022/04/23 00:37:39;;;;;;;32.28;22.23;;;11.10;99.90;;;;;;5034380;28;20406;-61
2022/04/23 00:40:07;;;;;;;30.70;21.48;;;11.10;99.90;;;;;;5033475;28;20040;-60
2022/04/23 00:42:45;;;;;;;30.17;19.83;;;11.20;99.90;;;;;;5033895;28;20025;-60
2022/04/23 00:45:10;;;;;;;32.40;21.70;;;11.20;99.90;;;;;;5033617;28;20690;-58
2022/04/23 00:47:36;;;;;;;31.88;21.35;;;11.20;99.90;;;;;;5033610;28;20127;-58
2022/04/23 00:50:03;;;;;;;28.60;19.98;;;11.20;99.90;;;;;;5032249;28;20029;-55
2022/04/23 00:52:28;;;;;;;35.63;22.77;;;11.20;99.90;;;;;;5033755;28;20116;-60
2022/04/23 00:54:54;;;;;;;32.55;21.83;;;11.30;99.90;;;;;;5033720;28;20072;-59
2022/04/23 00:57:20;;;;;;;31.55;21.80;;;11.30;99.90;;;;;;5034063;28;20037;-58
2022/04/23 00:59:49;;;;;;;30.15;21.35;;;11.30;99.90;;;;;;5063603;22;20047;-63
2022/04/23 01:02:15;;;;;;;30.88;21.33;;;11.20;99.90;;;;;;5072942;28;20025;-61
2022/04/23 01:04:41;;;;;;;30.73;20.70;;;11.20;99.90;;;;;;5071240;28;20035;-63
2022/04/23 01:07:08;;;;;;;32.75;21.15;;;11.20;99.90;;;;;;5072759;28;20024;-62
2022/04/23 01:09:34;;;;;;;33.05;21.58;;;11.20;99.90;;;;;;5071775;28;20020;-60
2022/04/23 01:12:00;;;;;;;29.10;21.02;;;11.30;99.90;;;;;;5071044;28;20039;-61
2022/04/23 01:14:26;;;;;;;31.13;22.42;;;11.20;99.90;;;;;;5070774;28;20072;-64
2022/04/23 01:16:52;;;;;;;27.77;19.63;;;11.20;99.90;;;;;;5071013;28;20036;-62
2022/04/23 01:19:18;;;;;;;32.75;20.85;;;11.20;99.90;;;;;;5070390;28;20029;-62
2022/04/23 01:21:43;;;;;;;31.95;21.33;;;11.20;99.90;;;;;;5071913;28;20025;-61
2022/04/23 01:24:09;;;;;;;34.42;22.00;;;11.20;99.90;;;;;;5072018;28;20016;-63
2022/04/23 01:26:35;;;;;;;29.60;20.85;;;11.20;99.90;;;;;;5070563;28;20453;-62
2022/04/23 01:29:01;;;;;;;30.05;20.60;;;11.20;99.90;;;;;;5072420;28;20035;-64
2022/04/23 01:31:27;;;;;;;32.47;21.90;;;11.10;99.90;;;;;;5072441;28;20071;-65
2022/04/23 01:33:54;;;;;;;30.02;20.92;;;11.10;99.90;;;;;;5072385;28;20039;-62
2022/04/23 01:36:20;;;;;;;30.38;19.77;;;11.10;99.90;;;;;;5072436;28;20488;-60
2022/04/23 01:38:47;;;;;;;27.27;19.58;;;11.20;99.90;;;;;;5071148;28;20056;-62
2022/04/23 01:41:13;;;;;;;30.80;21.23;;;11.10;99.90;;;;;;5072018;28;20066;-61
2022/04/23 01:43:38;;;;;;;28.08;19.73;;;11.10;99.90;;;;;;5070698;28;20016;-61
2022/04/23 01:46:04;;;;;;;28.45;21.15;;;11.10;99.90;;;;;;5070769;28;20089;-63
2022/04/23 01:48:30;;;;;;;31.38;20.27;;;11.10;99.90;;;;;;5070651;28;20025;-63
2022/04/23 01:50:56;;;;;;;33.13;22.15;;;11.10;99.90;;;;;;5071540;28;20513;-64
2022/04/23 01:53:24;;;;;;;31.15;20.13;;;11.10;99.90;;;;;;5071527;28;20020;-63
2022/04/23 01:55:53;;;;;;;29.45;20.63;;;11.10;99.90;;;;;;5072164;28;20416;-63
2022/04/23 01:58:21;;;;;;;28.65;19.95;;;11.10;99.90;;;;;;5071896;28;20108;-63
2022/04/23 02:00:47;;;;;;;28.95;20.58;;;11.10;99.90;;;;;;5071538;28;20515;-63
2022/04/23 02:03:12;;;;;;;28.05;19.27;;;11.10;99.90;;;;;;5072261;28;20021;-63
2022/04/23 02:05:38;;;;;;;28.13;19.45;;;11.10;99.90;;;;;;5071659;28;20040;-64
2022/04/23 02:08:04;;;;;;;28.05;18.52;;;11.00;99.90;;;;;;5071628;28;20396;-63
2022/04/23 02:10:29;;;;;;;30.00;19.27;;;10.90;99.90;;;;;;5071378;28;20025;-63
2022/04/23 02:12:55;;;;;;;28.33;19.05;;;10.80;99.90;;;;;;5072089;28;20032;-61
2022/04/23 02:15:21;;;;;;;29.77;19.73;;;10.70;99.90;;;;;;5070427;28;20070;-63
2022/04/23 02:17:50;;;;;;;30.98;20.27;;;10.70;99.90;;;;;;5071995;28;20025;-61
2022/04/23 02:20:17;;;;;;;28.38;19.38;;;10.70;99.90;;;;;;5071456;28;20374;-60
2022/04/23 02:22:44;;;;;;;28.00;19.10;;;10.70;99.90;;;;;;5076860;28;20095;-60
2022/04/23 02:25:11;;;;;;;29.33;19.80;;;10.60;99.90;;;;;;5076975;28;20099;-62
2022/04/23 02:27:41;;;;;;;30.02;20.13;;;;;;;;;;5076959;28;20400;-60
2022/04/23 02:30:07;;;;;;;28.50;20.17;;;;;;;;;;5078673;28;20027;-59
2022/04/23 02:32:33;;;;;;;29.33;21.17;;;;;;;;;;5077184;28;20539;-61
2022/04/23 02:35:00;;;;;;;30.58;20.73;;;;;;;;;;5078124;28;20099;-60
2022/04/23 02:37:32;;;;;;;30.63;21.38;;;10.60;99.90;;;;;;5076790;28;20024;-64
2022/04/23 02:39:58;;;;;;;29.02;21.55;;;10.40;99.90;;;;;;5077940;28;20028;-62
2022/04/23 02:42:23;;;;;;;29.30;21.00;;;10.40;99.90;;;;;;5078068;28;20123;-61
2022/04/23 02:44:50;;;;;;;27.35;19.45;;;10.30;99.90;;;;;;5078167;28;20023;-60
2022/04/23 02:47:16;;;;;;;28.90;19.98;;;10.30;99.90;;;;;;5078121;28;20059;-59
2022/04/23 02:49:42;;;;;;;27.70;19.75;;;10.20;99.90;;;;;;5076302;28;20484;-62
2022/04/23 02:52:08;;;;;;;28.67;20.52;;;10.20;99.90;;;;;;5076527;28;20024;-61
2022/04/23 02:54:33;;;;;;;28.70;19.48;;;10.20;99.90;;;;;;5077890;28;20438;-64
2022/04/23 02:57:01;;;;;;;29.67;20.20;;;10.20;99.90;;;;;;5077803;28;20441;-62
2022/04/23 02:59:26;;;;;;;31.08;21.15;;;10.10;99.90;;;;;;5077343;28;20177;-60
2022/04/23 03:01:52;;;;;;;29.05;21.20;;;10.00;99.90;;;;;;5076237;28;20057;-60
2022/04/23 03:04:19;;;;;;;30.98;21.77;;;10.00;99.90;;;;;;5077220;28;20023;-59
2022/04/23 03:06:45;;;;;;;30.33;21.48;;;10.00;99.90;;;;;;5076217;28;20082;-61
2022/04/23 03:09:11;;;;;;;32.42;21.13;;;10.00;99.90;;;;;;5077327;28;20511;-62
2022/04/23 03:11:36;;;;;;;27.80;20.27;;;10.00;99.90;;;;;;5076218;28;20028;-59
2022/04/23 03:14:05;;;;;;;31.95;20.48;;;10.00;99.90;;;;;;5076256;28;20539;-59
2022/04/23 03:16:31;;;;;;;34.65;21.58;;;9.90;99.90;;;;;;5076726;28;20151;-61
2022/04/23 03:18:57;;;;;;;31.00;20.73;;;9.90;99.90;;;;;;5076475;28;20086;-61
2022/04/23 03:21:22;;;;;;;28.67;20.42;;;9.90;99.90;;;;;;5078238;28;20105;-62
2022/04/23 03:23:48;;;;;;;28.75;20.17;;;10.00;99.90;;;;;;5076593;28;20133;-60
2022/04/23 03:26:14;;;;;;;29.50;20.55;;;10.00;99.90;;;;;;5077710;28;20039;-62
2022/04/23 03:28:41;;;;;;;30.45;19.77;;;10.10;99.90;;;;;;5077575;28;20107;-62
2022/04/23 03:31:08;;;;;;;28.20;19.23;;;10.10;99.90;;;;;;5076407;28;20020;-62
2022/04/23 03:33:34;;;;;;;28.02;19.80;;;10.20;99.90;;;;;;5074473;28;20032;-60
2022/04/23 03:36:00;;;;;;;28.58;18.58;;;10.30;99.90;;;;;;5073393;28;20119;-61
2022/04/23 03:38:26;;;;;;;27.70;19.90;;;10.30;99.90;;;;;;5073030;28;20017;-61
2022/04/23 03:40:54;;;;;;;29.13;20.20;;;10.40;99.90;;;;;;5073019;28;20043;-59
2022/04/23 03:43:20;;;;;;;29.10;18.73;;;10.40;99.90;;;;;;5074728;28;20024;-61
2022/04/23 03:45:47;;;;;;;29.63;19.75;;;10.40;99.90;;;;;;5074697;28;20036;-61
2022/04/23 03:48:14;;;;;;;27.63;18.67;;;10.50;99.90;;;;;;5073629;28;20115;-61
2022/04/23 03:50:42;;;;;;;29.25;20.35;;;10.60;99.90;;;;;;5073645;28;20031;-62
2022/04/23 03:53:08;;;;;;;;;;;10.60;99.90;;;;;;5073458;28;20020;-63
2022/04/23 03:55:34;;;;;;;28.05;17.90;;;10.60;99.90;;;;;;5072932;28;19904;-62
2022/04/23 03:58:01;;;;;;;27.75;19.17;;;10.70;99.90;;;;;;5074397;28;20025;-62
2022/04/23 04:00:28;;;;;;;25.25;17.88;;;10.70;99.90;;;;;;5072048;28;20034;-62
2022/04/23 04:02:54;;;;;;;28.92;19.73;;;10.70;99.90;;;;;;5072985;28;20025;-62
2022/04/23 04:05:20;;;;;;;26.17;19.50;;;10.70;99.90;;;;;;5073370;28;20238;-61
2022/04/23 04:07:47;;;;;;;28.35;18.52;;;10.70;99.90;;;;;;5074608;28;20115;-63
2022/04/23 04:10:16;;;;;;;31.45;20.02;;;10.80;99.90;;;;;;5074516;28;20025;-62
2022/04/23 04:12:42;;;;;;;27.55;20.20;;;10.80;99.90;;;;;;5074390;28;20033;-64
2022/04/23 04:15:09;;;;;;;27.73;18.65;;;10.80;99.90;;;;;;5074449;28;20056;-62
2022/04/23 04:17:36;;;;;;;25.85;17.17;;;10.90;99.90;;;;;;5072814;28;20021;-59
2022/04/23 04:20:12;;;;;;;27.25;18.33;;;10.90;99.90;;;;;;5071923;28;20067;-62
2022/04/23 04:22:39;;;;;;;29.00;20.85;;;10.90;99.90;;;;;;5073811;28;20021;-63
2022/04/23 04:25:07;;;;;;;27.48;18.90;;;10.90;99.90;;;;;;5073504;28;20020;-62
2022/04/23 04:27:34;;;;;;;28.90;19.20;;;10.90;99.90;;;;;;5072471;28;20028;-63
2022/04/23 04:30:01;;;;;;;29.17;20.08;;;10.90;99.90;;;;;;5073840;28;20031;-63
2022/04/23 04:32:27;;;;;;;27.85;19.27;;;11.00;99.90;;;;;;5073508;28;20042;-64
2022/04/23 04:34:52;;;;;;;26.70;18.42;;;11.00;99.90;;;;;;5073939;28;20066;-62
2022/04/23 04:37:18;;;;;;;26.50;18.75;;;11.00;99.90;;;;;;5072651;28;20025;-62
2022/04/23 04:39:44;;;;;;;25.98;18.52;;;11.10;99.90;;;;;;5073757;28;20024;-61
2022/04/23 04:42:11;;;;;;;29.13;19.63;;;11.10;99.90;;;;;;5074158;28;20107;-63
2022/04/23 04:44:37;;;;;;;26.05;18.88;;;11.10;99.90;;;;;;5072819;28;20419;-61
2022/04/23 04:47:04;;;;;;;27.80;19.17;;;11.20;99.90;;;;;;5073832;28;20020;-63
2022/04/23 04:49:30;;;;;;;28.02;18.65;;;11.20;99.90;;;;;;5071159;28;20035;-61
2022/04/23 04:51:56;;;;;;;29.88;18.67;;;11.20;99.90;;;;;;5072267;28;20492;-63
2022/04/23 04:54:22;;;;;;;28.00;19.25;;;11.20;99.90;;;;;;5072975;28;20082;-63
2022/04/23 04:56:49;;;;;;;26.08;18.25;;;11.20;99.90;;;;;;5073051;28;20496;-62
2022/04/23 04:59:15;;;;;;;29.73;19.70;;;11.20;99.90;;;;;;5071072;28;20112;-60
2022/04/23 05:01:41;;;;;;;26.65;18.08;;;11.20;99.90;;;;;;5072789;28;20421;-62
2022/04/23 05:04:06;;;;;;;26.95;18.55;;;11.20;99.90;;;;;;5073283;28;20070;-62
2022/04/23 05:06:32;;;;;;;24.92;17.55;;;11.20;99.90;;;;;;5072853;28;20020;-63
2022/04/23 05:08:57;;;;;;;28.40;19.08;;;11.30;99.90;;;;;;5072804;28;20112;-62
2022/04/23 05:11:24;;;;;;;27.98;18.50;;;11.30;99.90;;;;;;5072107;28;20039;-64
2022/04/23 05:13:50;;;;;;;29.02;19.17;;;11.30;99.90;;;;;;5071514;28;20082;-63
2022/04/23 05:16:16;;;;;;;26.92;19.05;;;11.40;99.90;;;;;;5072592;28;20069;-63
2022/04/23 05:18:42;;;;;;;29.67;20.77;;;11.40;99.90;;;;;;5072501;28;20467;-63
2022/04/23 05:21:07;;;;;;;28.33;19.90;;;11.40;99.90;;;;;;5072006;28;20024;-63
2022/04/23 05:23:33;;;;;;;29.75;19.25;;;11.50;99.90;;;;;;5072272;28;20051;-64
2022/04/23 05:25:59;;;;;;;29.27;18.98;;;11.50;99.90;;;;;;5072236;28;20047;-63
2022/04/23 05:28:25;;;;;;;27.67;19.10;;;11.50;99.90;;;;;;5072585;28;20020;-63
2022/04/23 05:30:50;;;;;;;30.95;18.80;;;11.60;99.90;;;;;;5072168;28;20032;-62
2022/04/23 05:33:16;;;;;;;27.52;19.25;;;11.60;99.90;;;;;;5072356;28;20021;-63
2022/04/23 05:35:42;;;;;;;28.92;19.48;;;11.60;99.90;;;;;;5072550;28;20079;-63
2022/04/23 05:38:07;;;;;;;26.20;17.95;;;11.60;99.90;;;;;;5072189;28;20119;-65
2022/04/23 05:40:33;;;;;;;28.02;18.45;;;11.70;99.90;;;;;;5070198;28;20563;-63
2022/04/23 05:42:59;;;;;;;27.17;18.23;;;11.70;99.90;;;;;;5072048;28;20024;-63
2022/04/23 05:45:28;;;;;;;29.48;19.20;;;11.80;99.90;;;;;;5071737;28;20017;-63
2022/04/23 05:47:55;;;;;;;28.30;19.40;;;11.80;99.90;;;;;;5072275;28;20025;-62
2022/04/23 05:50:21;;;;;;;28.10;18.90;;;11.90;99.90;;;;;;5071327;28;20048;-63
2022/04/23 05:52:46;;;;;;;26.92;18.60;;;12.00;99.90;;;;;;5071661;28;20021;-60
2022/04/23 05:55:13;;;;;;;33.17;17.98;;;12.20;99.90;;;;;;5063595;28;20031;-62
2022/04/23 05:57:39;;;;;;;27.77;17.17;;;12.20;99.90;;;;;;5068911;28;20047;-63
2022/04/23 06:00:06;;;;;;;27.85;17.55;;;12.10;99.90;;;;;;5051334;28;20029;-63
2022/04/23 06:02:32;;;;;;;26.17;17.80;;;12.20;99.90;;;;;;5059505;28;20020;-60
2022/04/23 06:04:58;;;;;;;26.98;18.23;;;12.20;99.90;;;;;;5070180;28;20027;-61
2022/04/23 06:07:24;;;;;;;26.15;17.48;;;12.30;99.90;;;;;;5070588;28;20031;-62
2022/04/23 06:09:50;;;;;;;25.15;17.60;;;12.20;99.90;;;;;;5071583;28;20435;-63
2022/04/23 06:12:16;;;;;;;26.60;18.23;;;12.10;99.90;;;;;;5071652;28;20039;-63
2022/04/23 06:14:41;;;;;;;28.38;17.80;;;12.10;99.90;;;;;;5071464;28;20028;-62
2022/04/23 06:17:12;;;;;;;26.15;16.92;;;12.00;99.90;;;;;;5071650;28;20024;-63
2022/04/23 06:19:41;;;;;;;29.83;20.20;;;11.90;99.90;;;;;;5071443;28;20028;-63
2022/04/23 06:22:07;;;;;;;25.38;17.08;;;11.80;99.90;;;;;;5071507;28;20028;-62
2022/04/23 06:24:34;;;;;;;28.50;18.15;;;11.80;99.90;;;;;;5071426;28;20027;-64
2022/04/23 06:27:00;;;;;;;29.52;18.98;;;11.80;99.90;;;;;;5071798;28;20029;-61
2022/04/23 06:29:25;;;;;;;26.67;18.65;;;11.70;99.90;;;;;;5053220;28;20032;-62
2022/04/23 06:31:51;;;;;;;34.25;18.17;;;11.60;99.90;;;;;;5051682;28;20037;-61
2022/04/23 06:34:17;;;;;;;27.00;18.13;;;11.50;99.90;;;;;;5051653;28;20025;-63
2022/04/23 06:36:43;;;;;;;28.38;17.58;;;11.40;99.90;;;;;;5050124;28;20489;-63
2022/04/23 06:39:09;;;;;;;26.15;16.77;;;11.50;99.90;;;;;;5051540;28;20049;-63
2022/04/23 06:41:35;;;;;;;26.98;17.58;;;11.40;99.90;;;;;;5051885;28;20071;-62
2022/04/23 06:44:01;;;;;;;26.05;17.33;;;11.40;99.90;;;;;;5050190;28;20112;-62
2022/04/23 06:46:27;;;;;;;27.65;17.27;;;11.40;99.90;;;;;;5049839;28;20473;-63
2022/04/23 06:48:52;;;;;;;27.13;17.80;;;11.40;99.90;;;;;;5049418;28;20071;-63
2022/04/23 06:51:18;;;;;;;25.25;16.65;;;11.50;99.90;;;;;;5051061;28;20485;-58
2022/04/23 06:53:44;;;;;;;25.80;16.77;;;11.60;99.90;;;;;;5049945;28;20388;-63
2022/04/23 06:56:10;;;;;;;26.40;17.80;;;11.80;99.90;;;;;;5050042;28;20025;-61
2022/04/23 06:58:35;;;;;;;26.90;16.40;;;11.80;99.90;;;;;;5051638;28;20082;-63
2022/04/23 07:01:01;;;;;;;24.98;16.92;;;11.80;99.90;;;;;;5073755;22;20044;-62
2022/04/23 07:03:27;;;;;;;26.52;17.60;;;11.70;99.90;;;;;;5050542;28;20025;-56
2022/04/23 07:05:53;;;;;;;28.13;18.10;;;11.70;99.90;;;;;;5051326;28;20031;-60
2022/04/23 07:08:19;;;;;;;26.58;17.25;;;11.60;99.90;;;;;;5052863;28;20040;-61
2022/04/23 07:10:44;;;;;;;26.20;16.52;;;11.70;99.90;;;;;;5064330;28;20523;-59
2022/04/23 07:13:11;;;;;;;28.23;17.65;;;11.70;99.90;;;;;;5074062;28;20028;-61
2022/04/23 07:15:37;;;;;;;27.48;17.50;;;11.70;99.90;;;;;;5073925;28;20024;-60
2022/04/23 07:18:03;;;;;;;26.20;17.40;;;11.70;99.90;;;;;;5075181;28;20035;-58
2022/04/23 07:20:29;;;;;;;25.98;17.13;;;11.80;99.90;;;;;;5074750;28;20402;-60
2022/04/23 07:25:38;;;;;;;25.50;16.50;;;12.00;99.90;;;;;;5075181;28;20093;-59
2022/04/23 07:28:05;;;;;;;26.52;17.30;;;12.20;99.90;;;;;;5074890;28;20012;-61
2022/04/23 07:30:31;;;;;;;25.98;17.85;;;12.30;99.90;;;;;;5075006;28;20024;-59
2022/04/23 07:32:57;;;;;;;29.02;18.63;;;12.40;99.90;;;;;;5073822;28;20162;-60
2022/04/23 07:38:16;;;;;;;27.60;17.83;;;12.40;99.90;;;;;;5075117;28;20056;-63
2022/04/23 07:40:43;;;;;;;26.30;17.30;;;12.50;99.90;;;;;;5074349;28;20111;-61
2022/04/23 07:43:13;;;;;;;30.15;18.58;;;12.60;99.90;;;;;;5074855;28;20024;-61
2022/04/23 07:45:41;;;;;;;27.75;17.40;;;12.80;99.90;;;;;;5073479;28;20411;-60
2022/04/23 07:48:08;;;;;;;29.50;18.05;;;12.90;99.90;;;;;;5074881;28;20025;-63
2022/04/23 07:50:34;;;;;;;28.83;19.02;;;13.10;99.90;;;;;;5072928;28;20484;-63
2022/04/23 07:53:01;;;;;;;28.17;18.90;;;13.10;99.90;;;;;;5074281;28;20028;-62
2022/04/23 07:55:29;;;;;;;28.55;18.73;;;13.30;99.90;;;;;;5074264;28;20100;-63
2022/04/23 07:57:57;;;;;;;31.20;18.55;;;13.30;99.90;;;;;;5074615;28;20032;-63
2022/04/23 08:00:23;;;;;;;31.57;20.47;;;13.40;99.90;;;;;;5073856;28;20028;-62
2022/04/23 08:02:48;;;;;;;30.65;19.92;;;13.40;99.90;;;;;;5073295;28;20040;-63
2022/04/23 08:05:14;;;;;;;29.40;19.25;;;13.40;99.90;;;;;;5072710;28;20074;-63
2022/04/23 08:07:42;;;;;;;31.08;19.88;;;13.40;99.90;;;;;;5074176;28;20445;-63
2022/04/23 08:10:08;;;;;;;32.45;20.70;;;13.30;99.90;;;;;;5074020;28;20104;-61
2022/04/23 08:12:35;;;;;;;30.23;19.60;;;13.40;99.90;;;;;;5074159;28;20048;-62
2022/04/23 08:15:02;;;;;;;29.23;19.85;;;13.60;99.90;;;;;;5074054;28;20111;-59
2022/04/23 08:17:28;;;;;;;29.52;19.50;;;13.60;99.90;;;;;;5074021;28;20024;-62
2022/04/23 08:19:53;;;;;;;30.50;20.83;;;13.70;99.90;;;;;;5071922;28;20020;-61
2022/04/23 08:22:19;;;;;;;31.38;21.38;;;13.80;99.90;;;;;;5073779;28;20048;-60
2022/04/23 08:24:45;;;;;;;33.42;21.65;;;;;;;;;;5073342;28;20025;-61
2022/04/23 08:27:11;;;;;;;31.10;20.20;;;;;;;;;;5072032;28;20023;-63
2022/04/23 08:32:22;;;;;;;30.25;19.33;;;;;;;;;;5072110;28;20036;-62
2022/04/23 08:34:47;;;;;;;30.88;21.02;;;;;;;;;;5070474;28;20020;-63
2022/04/23 08:37:13;;;;;;;32.17;21.38;;;;;;;;;;5071122;28;20032;-62
2022/04/23 08:39:42;;;;;;;32.58;20.67;;;;;;;;;;5069782;28;20069;-59
2022/04/23 08:42:09;;;;;;;31.35;21.60;;;;;;;;;;5073521;28;20029;-60
2022/04/23 08:44:37;;;;;;;33.55;21.27;;;;;;;;;;5073315;28;20054;-62
2022/04/23 08:47:04;;;;;;;30.55;20.75;;;;;;;;;;5072257;28;20079;-61
2022/04/23 08:49:34;;;;;;;32.88;20.58;;;14.00;99.90;;;;;;5073229;28;20055;-61
2022/04/23 08:52:11;;;;;;;30.33;21.80;;;15.10;99.90;;;;;;5072031;28;20025;-61
2022/04/23 08:54:37;;;;;;;30.30;21.20;;;15.20;99.90;;;;;;5073120;28;20428;-62
2022/04/23 08:57:04;;;;;;;32.55;22.85;;;;;;;;;;5071892;28;20377;-62
2022/04/23 08:59:30;;;;;;;30.80;21.90;;;;;;;;;;5071527;28;20498;-61
2022/04/23 09:01:56;;;;;;;32.72;22.25;;;;;;;;;;5071487;28;20124;-62
2022/04/23 09:04:22;;;;;;;28.52;21.23;;;;;;;;;;5072087;28;20578;-62
2022/04/23 09:06:49;;;;;;;30.88;21.67;;;;;;;;;;5073400;28;20048;-62
2022/04/23 09:09:15;;;;;;;29.98;21.77;;;;;;;;;;5073292;28;20024;-61
2022/04/23 09:11:42;;;;;;;29.48;20.50;;;;;;;;;;5073166;28;20107;-61
2022/04/23 09:14:09;;;;;;;30.13;21.15;;;;;;;;;;5071610;28;20021;-61
2022/04/23 09:25:07;;;;;;;29.15;20.58;;;15.50;99.90;;;;;;5073100;28;20074;-60
2022/04/23 09:27:34;;;;;;;31.15;21.92;;;15.40;99.90;;;;;;5073206;28;20023;-62
2022/04/23 09:30:04;;;;;;;31.10;21.38;;;15.60;99.90;;;;;;5071004;28;20086;-62
2022/04/23 09:32:31;;;;;;;28.80;21.67;;;15.70;99.90;;;;;;5071990;28;20051;-60
2022/04/23 09:35:10;;;;;;;30.42;22.25;;;15.90;99.90;;;;;;5072296;28;20443;-60
2022/04/23 09:40:23;;;;;;;31.50;22.02;;;15.80;99.90;;;;;;5071932;28;20086;-63
2022/04/23 09:42:56;;;;;;;31.13;21.40;;;15.90;99.90;;;;;;5072201;28;20396;-62
2022/04/23 09:45:22;;;;;;;30.20;21.80;;;16.00;99.90;;;;;;5072146;28;20028;-60
2022/04/23 09:47:47;;;;;;;28.27;20.67;;;16.00;99.90;;;;;;5072447;28;20449;-62
2022/04/23 09:50:16;;;;;;;28.38;19.92;;;16.40;99.90;;;;;;5070959;28;20025;-61
2022/04/23 09:52:42;;;;;;;27.77;19.40;;;;;;;;;;5072643;28;20108;-62
2022/04/23 09:55:09;;;;;;;27.75;19.95;;;;;;;;;;5072300;28;20024;-60
2022/04/23 09:57:37;;;;;;;26.70;19.50;;;;;;;;;;5072159;28;20021;-61
2022/04/23 10:00:03;;;;;;;26.92;18.25;;;;;;;;;;5071808;28;20041;-60
2022/04/23 10:02:29;;;;;;;27.98;18.92;;;;;;;;;;5072059;28;20040;-62
2022/04/23 10:04:57;;;;;;;26.90;18.88;;;;;;;;;;5071759;28;20467;-62
2022/04/23 10:07:25;;;;;;;27.83;17.53;;;;;;;;;;5052501;28;20148;-61
2022/04/23 10:09:53;;;;;;;;;;;16.60;99.90;;;;;;5051086;28;20021;-56
2022/04/23 10:12:19;;;;;;;27.60;18.00;;;17.60;99.10;;;;;;4706520;28;9999847;-57
2022/04/23 10:15:00;;;;;;;24.88;17.40;;;17.10;98.30;;;;;;5048835;28;20293;-61
2022/04/23 10:17:27;;;;;;;28.33;18.08;;;17.30;98.20;;;;;;5047743;28;20036;-60
2022/04/23 10:19:54;;;;;;;30.48;18.02;;;17.50;98.30;;;;;;5054516;28;20106;-57
2022/04/23 10:22:29;;;;;;;23.38;17.02;;;17.40;97.70;;;;;;5069303;28;20028;-58
2022/04/23 10:25:10;;;;;;;25.15;17.35;;;17.70;97.60;;;;;;5068646;28;20020;-57
2022/04/23 10:27:36;;;;;;;26.02;17.80;;;17.90;96.80;;;;;;5069027;28;20047;-55
2022/04/23 10:30:04;;;;;;;24.90;17.02;;;17.60;96.80;;;;;;5068646;28;20025;-55
2022/04/23 10:32:40;;;;;;;;;;;17.80;96.80;;;;;;5068822;28;20112;-58
2022/04/23 10:35:17;;;;;;;24.20;16.75;;;18.00;96.00;;;;;;5070250;28;19905;-54
2022/04/23 10:37:44;;;;;;;23.90;17.23;;;18.20;95.90;;;;;;5070466;28;20064;-54
2022/04/23 10:40:18;;;;;;;24.98;17.38;;;18.20;95.60;;;;;;5071637;28;20027;-56
2022/04/23 10:43:15;;;;;;;24.38;17.17;;;18.20;95.10;;;;;;5073828;28;20035;-56
2022/04/23 10:45:41;;;;;;;27.83;17.63;;;18.20;95.50;;;;;;5059857;28;20029;-62
2022/04/23 10:48:26;;;;;;;27.50;17.85;;;18.30;94.60;;;;;;5074658;28;20029;-60
2022/04/23 10:51:20;;;;;;;23.50;17.60;;;18.40;94.90;;;;;;5075607;28;20029;-57
2022/04/23 10:53:49;;;;;;;23.92;17.50;;;18.30;94.90;;;;;;5076152;28;20028;-58
2022/04/23 10:56:16;;;;;;;25.23;17.45;;;18.70;95.30;;;;;;5065895;28;20025;-54
2022/04/23 10:58:42;;;;;;;23.98;16.55;;;18.80;94.30;;;;;;5055846;28;20521;-57
2022/04/23 11:01:25;;;;;;;23.25;16.92;;;18.90;93.70;;;;;;5054291;28;20507;-58
2022/04/23 11:04:11;;;;;;;24.73;16.90;;;19.20;94.00;;;;;;4706259;28;10000547;-61
2022/04/23 11:12:39;;;;;;;23.15;16.67;;;19.60;92.10;;;;;;5052940;28;20087;-57
2022/04/23 11:15:15;;;;;;;24.10;17.35;;;20.50;91.20;;;;;;5052492;28;20040;-61
2022/04/23 11:17:58;;;;;;;23.48;16.70;;;21.20;90.00;;;;;;5052690;28;20037;-57
2022/04/23 11:20:28;;;;;;;23.40;16.67;;;21.60;86.50;;;;;;5065696;28;20066;-61
2022/04/23 11:22:55;;;;;;;23.67;16.50;;;21.90;83.90;;;;;;5072304;28;20024;-59
2022/04/23 11:25:23;;;;;;;27.45;17.92;;;22.00;83.30;;;;;;5071708;28;20027;-61
2022/04/23 11:27:50;;;;;;;22.67;16.15;;;22.10;81.90;;;;;;5066256;28;20028;-62
2022/04/23 11:30:26;;;;;;;23.77;17.50;;;22.50;80.40;;;;;;5053181;28;20120;-62
2022/04/23 11:32:52;;;;;;;23.10;17.02;;;22.90;79.10;;;;;;5052818;28;20025;-63
2022/04/23 11:35:29;;;;;;;27.10;16.92;;;23.00;78.10;;;;;;5058319;28;20108;-62
2022/04/23 11:37:55;;;;;;;22.10;16.85;;;23.40;76.50;;;;;;5069366;28;20829;-56
2022/04/23 11:40:24;;;;;;;24.23;16.60;;;23.40;75.80;;;;;;5069790;28;20442;-61
2022/04/23 11:42:50;;;;;;;25.60;17.85;;;23.40;75.90;;;;;;5071752;28;20023;-62
2022/04/23 11:45:16;;;;;;;23.75;18.20;;;23.70;73.40;;;;;;5067016;28;20025;-62
2022/04/23 11:47:42;;;;;;;22.30;16.13;;;24.30;72.80;;;;;;5065639;28;20025;-59
2022/04/23 11:50:21;;;;;;;22.33;15.93;;;24.40;70.90;;;;;;5070325;28;20028;-62
2022/04/23 11:53:00;;;;;;;20.48;16.27;;;24.50;69.50;;;;;;5071546;28;20028;-60
2022/04/23 11:55:27;;;;;;;22.08;16.92;;;24.60;67.90;;;;;;5066706;28;20431;-61
2022/04/23 11:58:04;;;;;;;24.83;16.15;;;24.60;67.70;;;;;;5051389;28;20025;-59
2022/04/23 12:00:32;;;;;;;22.75;16.25;;;24.20;67.90;;;;;;5051196;28;20075;-63
2022/04/23 12:02:58;;;;;;;21.95;17.05;;;24.70;67.70;;;;;;5051353;28;20033;-61
2022/04/23 12:05:31;;;;;;;22.23;16.83;;;24.60;67.50;;;;;;5049876;28;20021;-60
2022/04/23 12:07:58;;;;;;;22.63;15.77;;;23.70;67.00;;;;;;5051154;28;20463;-62
2022/04/23 12:10:25;;;;;;;25.63;17.08;;;23.00;69.30;;;;;;5051058;28;20116;-62
2022/04/23 12:12:51;;;;;;;22.63;16.58;;;22.80;69.20;;;;;;5050967;28;20404;-60
2022/04/23 12:15:19;;;;;;;21.02;15.50;;;22.40;70.10;;;;;;5050941;28;20025;-63
2022/04/23 12:17:54;;;;;;;23.33;16.75;;;22.10;71.20;;;;;;5051345;28;20435;-62
2022/04/23 12:20:25;;;;;;;21.88;16.52;;;21.60;70.90;;;;;;5061610;28;20028;-63
2022/04/23 12:23:07;;;;;;;23.13;16.63;;;20.80;72.10;;;;;;5069677;28;20025;-60
2022/04/23 12:25:35;;;;;;;21.08;16.08;;;20.60;73.10;;;;;;5070868;28;20033;-60
2022/04/23 12:42:11;;;;;;;22.20;16.50;;;21.00;73.20;;;;;;5070686;28;20031;-63
2022/04/23 12:44:42;;;;;;;20.98;16.58;;;20.50;72.70;;;;;;5071132;28;20465;-62
2022/04/23 12:47:17;;;;;;;21.27;16.73;;;20.30;73.20;;;;;;5070685;28;20032;-63
2022/04/23 12:49:44;;;;;;;22.70;16.08;;;20.20;73.10;;;;;;5069208;28;20039;-64
2022/04/23 12:52:32;;;;;;;21.85;16.05;;;20.10;73.70;;;;;;5070806;28;20037;-61
2022/04/23 12:55:18;;;;;;;22.13;16.37;;;20.30;74.30;;;;;;5067442;28;20085;-62
2022/04/23 12:57:45;;;;;;;22.08;16.35;;;21.10;72.40;;;;;;5066883;28;20035;-64
2022/04/23 13:00:16;;;;;;;21.50;16.00;;;21.30;71.20;;;;;;5067887;28;20111;-65
2022/04/23 13:02:43;;;;;;;21.05;15.30;;;21.50;72.20;;;;;;5067039;28;20051;-65
2022/04/23 13:05:10;;;;;;;21.33;15.32;;;22.10;70.70;;;;;;5066647;28;20204;-64
2022/04/23 13:10:20;;;;;;;21.88;16.17;;;24.10;68.00;;;;;;5060789;28;20518;-64
2022/04/23 13:12:46;;;;;;;21.27;16.42;;;23.00;67.10;;;;;;5061367;28;20446;-62
2022/04/23 13:15:12;;;;;;;21.75;16.20;;;21.30;67.80;;;;;;5069835;28;20071;-61
2022/04/23 13:17:38;;;;;;;21.40;16.17;;;20.60;69.40;;;;;;5068911;28;20056;-62
2022/04/23 13:20:12;;;;;;;20.90;16.38;;;20.30;70.20;;;;;;5059442;28;20036;-62